createdAt,value
2022-09-25T00:01:30.427Z,14.20
2022-09-25T00:03:59.993Z,14.20
2022-09-25T00:06:29.615Z,14.20
2022-09-25T00:08:59.594Z,14.20
2022-09-25T00:11:30.993Z,14.20
2022-09-25T00:14:01.290Z,14.20
2022-09-25T00:16:32.760Z,14.10
2022-09-25T00:19:20.123Z,14.10
2022-09-25T00:21:52.820Z,14.00
2022-09-25T00:24:22.140Z,14.00
2022-09-25T00:26:50.276Z,14.00
2022-09-25T00:29:21.412Z,14.00
2022-09-25T00:31:49.512Z,14.00
2022-09-25T00:34:18.954Z,14.00
2022-09-25T00:36:46.993Z,14.00
2022-09-25T00:39:15.217Z,14.00
2022-09-25T00:41:43.401Z,14.00
2022-09-25T00:44:56.549Z,14.00
2022-09-25T00:47:47.856Z,14.00
2022-09-25T00:50:28.221Z,14.00
2022-09-25T00:53:03.859Z,13.90
2022-09-25T00:55:34.181Z,13.90
2022-09-25T00:58:04.861Z,13.90
2022-09-25T01:00:35.513Z,13.90
2022-09-25T01:03:05.059Z,13.80
2022-09-25T01:05:38.723Z,13.80
2022-09-25T01:08:10.099Z,13.80
2022-09-25T01:10:38.459Z,13.70
2022-09-25T01:13:07.740Z,13.70
2022-09-25T01:15:45.088Z,13.70
2022-09-25T01:18:28.955Z,13.70
2022-09-25T01:21:12.092Z,13.70
2022-09-25T01:24:25.287Z,13.70
2022-09-25T01:27:19.628Z,13.70
2022-09-25T01:29:55.074Z,13.70
2022-09-25T01:32:30.343Z,13.70
2022-09-25T01:35:03.384Z,13.70
2022-09-25T01:37:39.701Z,13.70
2022-09-25T01:40:15.580Z,13.70
2022-09-25T01:42:50.262Z,13.70
2022-09-25T01:45:25.268Z,13.70
2022-09-25T01:47:54.364Z,13.70
2022-09-25T01:50:32.568Z,13.60
2022-09-25T01:53:06.596Z,13.60
2022-09-25T01:55:41.365Z,13.60
2022-09-25T01:58:15.083Z,13.50
2022-09-25T02:00:50.807Z,13.50
2022-09-25T02:03:25.757Z,13.50
2022-09-25T02:05:57.416Z,13.60
2022-09-25T02:08:31.239Z,13.60
2022-09-25T02:11:02.520Z,13.60
2022-09-25T02:13:38.944Z,13.60
2022-09-25T02:16:13.647Z,13.60
2022-09-25T02:18:59.612Z,13.70
2022-09-25T02:21:40.215Z,13.70
2022-09-25T02:24:18.655Z,13.60
2022-09-25T02:26:46.767Z,13.60
2022-09-25T02:29:15.885Z,13.60
2022-09-25T02:31:50.322Z,13.60
2022-09-25T02:34:18.656Z,13.60
2022-09-25T02:36:46.858Z,13.60
2022-09-25T02:39:20.428Z,13.70
2022-09-25T02:42:04.587Z,13.70
2022-09-25T02:44:46.699Z,13.70
2022-09-25T02:47:27.503Z,13.70
2022-09-25T02:50:06.378Z,13.70
2022-09-25T02:52:44.900Z,13.70
2022-09-25T02:55:21.799Z,13.80
2022-09-25T02:57:56.092Z,13.80
2022-09-25T03:00:24.259Z,13.80
2022-09-25T03:02:59.432Z,13.80
2022-09-25T03:05:27.890Z,13.80
2022-09-25T03:08:14.196Z,13.80
2022-09-25T03:10:46.055Z,13.80
2022-09-25T03:13:19.623Z,13.80
2022-09-25T03:15:53.224Z,13.80
2022-09-25T03:18:22.880Z,13.80
2022-09-25T03:20:50.949Z,13.80
2022-09-25T03:23:19.375Z,13.90
2022-09-25T03:25:50.363Z,13.80
2022-09-25T03:28:19.423Z,13.80
2022-09-25T03:30:58.638Z,13.80
2022-09-25T03:33:29.142Z,13.80
2022-09-25T03:36:06.275Z,13.80
2022-09-25T03:38:34.967Z,13.80
2022-09-25T03:41:03.591Z,13.80
2022-09-25T03:43:32.567Z,13.80
2022-09-25T03:46:00.694Z,13.80
2022-09-25T03:48:30.182Z,13.80
2022-09-25T03:50:58.794Z,13.80
2022-09-25T03:53:26.919Z,13.80
2022-09-25T03:55:55.710Z,13.80
2022-09-25T03:58:23.910Z,13.80
2022-09-25T04:00:52.032Z,13.80
2022-09-25T04:03:22.096Z,13.80
2022-09-25T04:05:51.767Z,13.80
2022-09-25T04:08:19.881Z,13.80
2022-09-25T04:10:47.949Z,13.70
2022-09-25T04:13:17.763Z,13.70
2022-09-25T04:15:46.135Z,13.70
2022-09-25T04:18:14.612Z,13.70
2022-09-25T04:20:42.988Z,13.70
2022-09-25T04:23:12.499Z,13.80
2022-09-25T04:25:40.718Z,13.70
2022-09-25T04:28:10.038Z,13.70
2022-09-25T04:30:38.153Z,13.70
2022-09-25T04:33:24.144Z,13.70
2022-09-25T04:35:52.258Z,13.70
2022-09-25T04:38:21.770Z,13.70
2022-09-25T04:40:49.935Z,13.70
2022-09-25T04:43:18.306Z,13.70
2022-09-25T04:45:47.860Z,13.70
2022-09-25T04:48:15.997Z,13.70
2022-09-25T04:50:51.565Z,13.70
2022-09-25T04:53:21.203Z,13.80
2022-09-25T04:55:49.225Z,13.80
2022-09-25T04:58:17.306Z,13.70
2022-09-25T05:00:45.390Z,13.70
2022-09-25T05:03:13.643Z,13.70
2022-09-25T05:05:41.877Z,13.70
2022-09-25T05:08:11.828Z,13.70
2022-09-25T05:10:41.591Z,13.70
2022-09-25T05:13:12.381Z,13.70
2022-09-25T05:15:40.451Z,13.70
2022-09-25T05:18:17.188Z,13.70
2022-09-25T05:20:45.349Z,13.70
2022-09-25T05:23:14.052Z,13.70
2022-09-25T05:25:43.744Z,13.70
2022-09-25T05:28:12.427Z,13.60
2022-09-25T05:30:40.583Z,13.60
2022-09-25T05:33:09.280Z,13.60
2022-09-25T05:35:37.470Z,13.60
2022-09-25T05:38:06.629Z,13.60
2022-09-25T05:40:34.785Z,13.60
2022-09-25T05:43:05.296Z,13.60
2022-09-25T05:45:33.748Z,13.60
2022-09-25T05:48:04.191Z,13.60
2022-09-25T05:50:33.231Z,13.60
2022-09-25T05:53:04.014Z,13.60
2022-09-25T05:55:32.845Z,13.60
2022-09-25T05:58:06.353Z,13.60
2022-09-25T06:00:34.522Z,13.60
2022-09-25T06:03:03.261Z,13.70
2022-09-25T06:05:31.467Z,13.60
2022-09-25T06:07:59.568Z,13.60
2022-09-25T06:10:28.123Z,13.60
2022-09-25T06:12:59.740Z,13.60
2022-09-25T06:15:30.871Z,13.50
2022-09-25T06:17:58.975Z,13.50
2022-09-25T06:20:27.153Z,13.60
2022-09-25T06:22:55.656Z,13.60
2022-09-25T06:25:26.463Z,13.70
2022-09-25T06:27:55.166Z,13.70
2022-09-25T06:30:27.458Z,13.70
2022-09-25T06:32:59.926Z,13.80
2022-09-25T06:35:28.658Z,13.80
2022-09-25T06:37:59.529Z,13.80
2022-09-25T06:40:29.121Z,13.90
2022-09-25T06:42:57.844Z,13.90
2022-09-25T06:45:27.043Z,13.90
2022-09-25T06:48:03.785Z,14.00
2022-09-25T06:50:39.660Z,14.00
2022-09-25T06:53:08.149Z,14.10
2022-09-25T06:55:36.532Z,14.10
2022-09-25T06:58:06.105Z,14.10
2022-09-25T07:00:35.282Z,14.20
2022-09-25T07:03:22.369Z,14.20
2022-09-25T07:05:50.475Z,14.30
2022-09-25T07:08:20.858Z,14.30
2022-09-25T07:10:50.272Z,14.30
2022-09-25T07:13:19.587Z,14.30
2022-09-25T07:15:52.963Z,14.30
2022-09-25T07:18:22.700Z,14.30
2022-09-25T07:20:51.501Z,14.30
2022-09-25T07:23:22.271Z,14.40
2022-09-25T07:25:51.131Z,14.40
2022-09-25T07:28:20.046Z,14.40
2022-09-25T07:30:49.554Z,14.40
2022-09-25T07:33:17.761Z,14.40
2022-09-25T07:35:47.194Z,14.40
2022-09-25T07:38:15.291Z,14.50
2022-09-25T07:40:43.514Z,14.50
2022-09-25T07:43:11.695Z,14.50
2022-09-25T07:45:39.816Z,14.50
2022-09-25T07:48:07.917Z,14.60
2022-09-25T07:50:36.051Z,14.60
2022-09-25T07:53:05.510Z,14.60
2022-09-25T07:55:33.614Z,14.70
2022-09-25T07:58:01.823Z,14.70
2022-09-25T08:00:29.977Z,14.70
2022-09-25T08:02:59.107Z,14.80
2022-09-25T08:05:28.159Z,14.80
2022-09-25T08:07:56.560Z,14.90
2022-09-25T08:10:26.080Z,14.90
2022-09-25T08:12:54.160Z,14.90
2022-09-25T08:15:22.592Z,15.00
2022-09-25T08:17:50.685Z,15.00
2022-09-25T08:20:19.244Z,15.00
2022-09-25T08:22:47.580Z,15.00
2022-09-25T08:25:16.081Z,15.00
2022-09-25T08:27:45.551Z,15.00
2022-09-25T08:30:15.832Z,15.00
2022-09-25T08:32:43.886Z,15.00
2022-09-25T08:35:11.986Z,15.00
2022-09-25T08:37:44.896Z,15.00
2022-09-25T08:40:19.722Z,15.00
2022-09-25T08:42:53.264Z,15.10
2022-09-25T08:45:46.765Z,15.10
2022-09-25T08:48:40.762Z,15.10
2022-09-25T08:51:09.672Z,15.20
2022-09-25T08:53:38.968Z,15.20
2022-09-25T08:56:18.394Z,15.20
2022-09-25T08:58:54.244Z,15.20
2022-09-25T09:01:26.863Z,15.20
2022-09-25T09:04:04.573Z,15.20
2022-09-25T09:06:35.128Z,15.20
2022-09-25T09:09:09.085Z,15.10
2022-09-25T09:11:41.265Z,15.10
2022-09-25T09:14:16.703Z,15.10
2022-09-25T09:16:52.572Z,15.10
2022-09-25T09:19:20.698Z,15.10
2022-09-25T09:21:58.215Z,15.10
2022-09-25T09:24:35.445Z,15.20
2022-09-25T09:27:22.880Z,15.30
2022-09-25T09:30:10.447Z,15.20
2022-09-25T09:33:14.771Z,15.30
2022-09-25T09:35:51.608Z,15.40
2022-09-25T09:38:39.396Z,15.40
2022-09-25T09:41:22.591Z,15.60
2022-09-25T09:44:12.267Z,15.80
2022-09-25T09:46:52.335Z,16.10
2022-09-25T09:49:29.680Z,16.40
2022-09-25T09:52:05.137Z,16.50
2022-09-25T09:54:42.874Z,16.50
2022-09-25T09:57:19.082Z,16.50
2022-09-25T09:59:52.694Z,16.50
2022-09-25T10:02:34.807Z,16.40
2022-09-25T10:05:09.355Z,16.30
2022-09-25T10:07:40.209Z,16.20
2022-09-25T10:10:15.373Z,16.20
2022-09-25T10:12:48.221Z,16.30
2022-09-25T10:15:25.917Z,16.30
2022-09-25T10:17:59.002Z,16.30
2022-09-25T10:20:43.118Z,16.40
2022-09-25T10:23:32.306Z,16.40
2022-09-25T10:26:00.835Z,16.40
2022-09-25T10:28:34.157Z,16.30
2022-09-25T10:31:04.100Z,16.40
2022-09-25T10:33:34.061Z,16.60
2022-09-25T10:36:02.828Z,16.70
2022-09-25T10:38:39.017Z,16.80
2022-09-25T10:41:12.090Z,16.90
2022-09-25T10:43:53.952Z,16.90
2022-09-25T10:46:49.071Z,16.90
2022-09-25T10:49:39.526Z,16.90
2022-09-25T10:52:09.863Z,16.90
2022-09-25T10:54:44.548Z,16.90
2022-09-25T10:57:25.460Z,16.80
2022-09-25T10:59:54.698Z,16.70
2022-09-25T11:02:35.786Z,16.60
2022-09-25T11:05:07.951Z,16.60
2022-09-25T11:07:36.131Z,16.60
2022-09-25T11:10:05.233Z,16.60
2022-09-25T11:12:33.536Z,16.70
2022-09-25T11:15:06.023Z,16.80
2022-09-25T11:17:39.696Z,16.80
2022-09-25T11:20:29.460Z,16.90
2022-09-25T11:23:26.551Z,16.90
2022-09-25T11:26:06.921Z,16.80
2022-09-25T11:28:42.365Z,16.70
2022-09-25T11:31:18.702Z,16.60
2022-09-25T11:33:53.025Z,16.50
2022-09-25T11:36:29.528Z,16.50
2022-09-25T11:39:20.985Z,16.50
2022-09-25T11:41:56.612Z,16.50
2022-09-25T11:44:32.808Z,16.60
2022-09-25T11:47:10.440Z,16.60
2022-09-25T11:49:41.031Z,16.70
2022-09-25T11:52:32.572Z,16.80
2022-09-25T11:55:43.326Z,16.90
2022-09-25T11:58:30.160Z,17.10
2022-09-25T12:01:10.471Z,17.10
2022-09-25T12:04:03.926Z,17.20
2022-09-25T12:07:17.031Z,17.30
2022-09-25T12:10:12.295Z,17.30
2022-09-25T12:12:51.619Z,17.50
2022-09-25T12:15:29.358Z,17.80
2022-09-25T12:18:08.092Z,19.00
2022-09-25T12:20:47.277Z,19.80
2022-09-25T12:23:25.369Z,20.00
2022-09-25T12:26:15.155Z,20.20
2022-09-25T12:29:10.495Z,21.00
2022-09-25T12:31:54.280Z,21.10
2022-09-25T12:34:40.274Z,20.80
2022-09-25T12:37:26.764Z,20.50
2022-09-25T12:39:59.954Z,20.20
2022-09-25T12:42:40.976Z,19.80
2022-09-25T12:45:19.274Z,19.40
2022-09-25T12:48:04.438Z,19.20
2022-09-25T12:50:38.050Z,18.80
2022-09-25T12:53:23.521Z,18.60
2022-09-25T12:55:58.552Z,18.40
2022-09-25T12:58:44.795Z,18.30
2022-09-25T13:01:21.992Z,18.20
2022-09-25T13:04:04.750Z,18.20
2022-09-25T13:06:44.351Z,18.50
2022-09-25T13:09:23.797Z,19.30
2022-09-25T13:11:57.252Z,20.40
2022-09-25T13:14:36.064Z,21.10
2022-09-25T13:17:04.637Z,21.50
2022-09-25T13:19:35.103Z,21.70
2022-09-25T13:22:07.287Z,21.90
2022-09-25T13:24:45.480Z,22.30
2022-09-25T13:27:22.194Z,22.20
2022-09-25T13:30:20.110Z,21.80
2022-09-25T13:32:51.679Z,21.20
2022-09-25T13:35:22.369Z,20.60
2022-09-25T13:37:53.322Z,20.30
2022-09-25T13:40:42.117Z,20.30
2022-09-25T13:43:24.350Z,20.20
2022-09-25T13:46:28.110Z,20.70
2022-09-25T13:49:33.749Z,20.40
2022-09-25T13:52:02.116Z,20.10
2022-09-25T13:54:31.975Z,19.80
2022-09-25T13:57:00.061Z,19.40
2022-09-25T13:59:41.074Z,19.60
2022-09-25T14:02:44.496Z,20.30
2022-09-25T14:05:18.770Z,20.00
2022-09-25T14:07:50.767Z,20.00
2022-09-25T14:10:20.223Z,19.80
2022-09-25T14:12:50.757Z,19.80
2022-09-25T14:15:27.837Z,19.80
2022-09-25T14:18:00.836Z,20.30
2022-09-25T14:20:35.917Z,20.70
2022-09-25T14:23:12.888Z,21.50
2022-09-25T14:25:44.465Z,22.00
2022-09-25T14:28:22.507Z,22.20
2022-09-25T14:31:15.641Z,21.90
2022-09-25T14:34:25.853Z,21.40
2022-09-25T14:37:08.105Z,20.80
2022-09-25T14:39:42.835Z,20.30
2022-09-25T14:42:54.227Z,19.90
2022-09-25T14:45:53.082Z,19.40
2022-09-25T14:48:26.719Z,18.90
2022-09-25T14:51:00.943Z,18.60
2022-09-25T14:53:33.079Z,18.40
2022-09-25T14:56:02.905Z,18.20
2022-09-25T14:58:34.202Z,17.90
2022-09-25T15:01:14.913Z,17.80
2022-09-25T15:03:48.824Z,17.60
2022-09-25T15:06:28.299Z,17.50
2022-09-25T15:08:56.920Z,17.40
2022-09-25T15:11:29.600Z,17.30
2022-09-25T15:14:11.867Z,17.30
2022-09-25T15:16:58.143Z,17.30
2022-09-25T15:19:31.106Z,17.20
2022-09-25T15:22:01.200Z,17.10
2022-09-25T15:24:32.926Z,17.10
2022-09-25T15:27:05.019Z,17.00
2022-09-25T15:29:37.861Z,16.90
2022-09-25T15:32:07.018Z,16.80
2022-09-25T15:34:35.107Z,16.80
2022-09-25T15:37:20.887Z,16.70
2022-09-25T15:39:49.029Z,16.60
2022-09-25T15:42:17.244Z,16.50
2022-09-25T15:44:46.210Z,16.40
2022-09-25T15:47:53.253Z,16.30
2022-09-25T15:50:26.104Z,16.20
2022-09-25T15:52:58.721Z,16.10
2022-09-25T15:55:27.022Z,16.10
2022-09-25T15:57:56.740Z,16.00
2022-09-25T16:00:43.766Z,15.90
2022-09-25T16:03:37.628Z,15.90
2022-09-25T16:06:06.655Z,15.90
2022-09-25T16:08:37.525Z,15.90
2022-09-25T16:11:19.942Z,16.30
2022-09-25T16:13:51.677Z,16.60
2022-09-25T16:16:29.439Z,16.70
2022-09-25T16:18:58.973Z,16.60
2022-09-25T16:21:31.677Z,16.50
2022-09-25T16:24:04.381Z,16.30
2022-09-25T16:26:39.581Z,16.20
2022-09-25T16:29:20.863Z,16.10
2022-09-25T16:31:53.574Z,16.10
2022-09-25T16:34:27.257Z,16.00
2022-09-25T16:36:59.343Z,15.90
2022-09-25T16:39:36.999Z,15.70
2022-09-25T16:42:31.263Z,15.60
2022-09-25T16:45:15.922Z,15.50
2022-09-25T16:47:49.264Z,15.40
2022-09-25T16:50:18.793Z,15.40
2022-09-25T16:52:48.252Z,15.30
2022-09-25T16:55:23.019Z,15.20
2022-09-25T16:57:52.936Z,15.10
2022-09-25T17:00:24.761Z,15.10
2022-09-25T17:02:53.930Z,15.00
2022-09-25T17:05:27.497Z,14.80
2022-09-25T17:07:58.316Z,14.70
2022-09-25T17:10:32.088Z,14.60
2022-09-25T17:13:02.839Z,14.60
2022-09-25T17:15:36.824Z,14.40
2022-09-25T17:18:15.228Z,14.40
2022-09-25T17:20:43.657Z,14.40
2022-09-25T17:23:12.842Z,14.30
2022-09-25T17:25:48.047Z,14.30
2022-09-25T17:28:17.188Z,14.30
2022-09-25T17:30:46.208Z,14.30
2022-09-25T17:33:18.028Z,14.30
2022-09-25T17:35:50.322Z,14.30
2022-09-25T17:38:19.026Z,14.20
2022-09-25T17:40:52.293Z,14.20
2022-09-25T17:43:20.831Z,14.20
2022-09-25T17:45:51.857Z,14.20
2022-09-25T17:48:24.249Z,14.20
2022-09-25T17:50:53.905Z,14.20
2022-09-25T17:53:24.812Z,14.20
2022-09-25T17:55:54.394Z,14.10
2022-09-25T17:58:24.411Z,14.10
2022-09-25T18:00:53.777Z,14.10
2022-09-25T18:03:22.906Z,14.10
2022-09-25T18:05:51.059Z,14.10
2022-09-25T18:08:19.733Z,14.10
2022-09-25T18:10:48.899Z,14.10
2022-09-25T18:13:19.978Z,14.10
2022-09-25T18:15:51.254Z,14.10
2022-09-25T18:18:19.456Z,14.10
2022-09-25T18:21:09.131Z,14.10
2022-09-25T18:23:38.747Z,14.00
2022-09-25T18:26:09.296Z,14.00
2022-09-25T18:28:38.779Z,14.00
2022-09-25T18:31:07.321Z,14.00
2022-09-25T18:33:35.605Z,14.00
2022-09-25T18:36:04.196Z,14.00
2022-09-25T18:38:32.321Z,13.90
2022-09-25T18:41:02.872Z,13.90
2022-09-25T18:43:31.264Z,13.90
2022-09-25T18:46:01.130Z,13.80
2022-09-25T18:48:29.441Z,13.80
2022-09-25T18:50:57.560Z,13.80
2022-09-25T18:53:25.716Z,13.80
2022-09-25T18:55:55.158Z,13.80
2022-09-25T18:58:23.247Z,13.80
2022-09-25T19:00:51.414Z,13.80
2022-09-25T19:03:20.891Z,13.80
2022-09-25T19:05:59.296Z,13.80
2022-09-25T19:08:27.924Z,13.80
2022-09-25T19:10:56.182Z,13.80
2022-09-25T19:13:24.992Z,13.80
2022-09-25T19:15:53.839Z,13.70
2022-09-25T19:18:23.431Z,13.70
2022-09-25T19:20:54.157Z,13.70
2022-09-25T19:23:23.180Z,13.80
2022-09-25T19:25:56.109Z,13.70
2022-09-25T19:28:24.649Z,13.70
2022-09-25T19:31:05.304Z,13.70
2022-09-25T19:33:37.263Z,13.70
2022-09-25T19:36:09.917Z,13.70
2022-09-25T19:38:40.065Z,13.70
2022-09-25T19:41:16.078Z,13.70
2022-09-25T19:43:44.801Z,13.60
2022-09-25T19:46:17.205Z,13.60
2022-09-25T19:48:48.586Z,13.60
2022-09-25T19:51:18.394Z,13.60
2022-09-25T19:53:46.808Z,13.50
2022-09-25T19:56:15.721Z,13.50
2022-09-25T19:58:44.175Z,13.50
2022-09-25T20:01:14.796Z,13.50
2022-09-25T20:03:43.568Z,13.40
2022-09-25T20:06:13.452Z,13.40
2022-09-25T20:08:41.615Z,13.40
2022-09-25T20:11:19.512Z,13.40
2022-09-25T20:13:49.297Z,13.40
2022-09-25T20:16:20.884Z,13.30
2022-09-25T20:18:50.397Z,13.40
2022-09-25T20:21:21.315Z,13.40
2022-09-25T20:23:52.017Z,13.30
2022-09-25T20:26:20.922Z,13.30
2022-09-25T20:28:53.898Z,13.30
2022-09-25T20:31:22.665Z,13.30
2022-09-25T20:33:50.922Z,13.30
2022-09-25T20:36:20.389Z,13.30
2022-09-25T20:38:51.335Z,13.20
2022-09-25T20:41:20.734Z,13.20
2022-09-25T20:43:51.537Z,13.20
2022-09-25T20:46:20.589Z,13.10
2022-09-25T20:48:50.976Z,13.10
2022-09-25T20:51:23.889Z,13.10
2022-09-25T20:53:54.006Z,13.10
2022-09-25T20:56:22.925Z,13.10
2022-09-25T20:58:53.526Z,13.10
2022-09-25T21:01:23.985Z,13.00
2022-09-25T21:03:53.265Z,13.00
2022-09-25T21:06:25.044Z,13.00
2022-09-25T21:08:54.749Z,13.00
2022-09-25T21:11:24.249Z,13.00
2022-09-25T21:13:58.021Z,13.00
2022-09-25T21:16:29.066Z,13.00
2022-09-25T21:18:59.824Z,13.00
2022-09-25T21:21:30.212Z,12.90
2022-09-25T21:23:59.154Z,12.90
2022-09-25T21:26:29.866Z,12.90
2022-09-25T21:29:00.962Z,12.90
2022-09-25T21:31:31.934Z,12.90
2022-09-25T21:34:00.949Z,12.90
2022-09-25T21:36:31.306Z,12.80
2022-09-25T21:39:01.016Z,12.80
2022-09-25T21:41:31.157Z,12.80
2022-09-25T21:44:01.700Z,12.80
2022-09-25T21:46:30.838Z,12.80
2022-09-25T21:49:01.684Z,12.80
2022-09-25T21:51:35.565Z,12.80
2022-09-25T21:54:04.151Z,12.80
2022-09-25T21:56:33.550Z,12.80
2022-09-25T21:59:15.908Z,12.80
2022-09-25T22:01:44.258Z,12.80
2022-09-25T22:04:14.347Z,12.70
2022-09-25T22:06:47.384Z,12.70
2022-09-25T22:09:18.761Z,12.70
2022-09-25T22:11:47.698Z,12.70
2022-09-25T22:14:16.939Z,12.70
2022-09-25T22:16:48.609Z,12.70
2022-09-25T22:19:20.296Z,12.70
2022-09-25T22:21:52.200Z,12.60
2022-09-25T22:24:20.946Z,12.70
2022-09-25T22:26:51.473Z,12.60
2022-09-25T22:29:21.225Z,12.60
2022-09-25T22:31:50.612Z,12.60
2022-09-25T22:34:22.683Z,12.60
2022-09-25T22:36:58.686Z,12.60
2022-09-25T22:39:28.350Z,12.60
2022-09-25T22:41:57.206Z,12.60
2022-09-25T22:44:26.287Z,12.60
2022-09-25T22:46:54.742Z,12.60
2022-09-25T22:49:22.823Z,12.60
2022-09-25T22:51:52.277Z,12.60
2022-09-25T22:54:20.542Z,12.60
2022-09-25T22:56:48.668Z,12.60
2022-09-25T22:59:18.764Z,12.60
2022-09-25T23:01:50.546Z,12.60
2022-09-25T23:04:21.231Z,12.60
2022-09-25T23:06:50.307Z,12.60
2022-09-25T23:09:22.636Z,12.60
2022-09-25T23:11:51.037Z,12.60
2022-09-25T23:14:21.492Z,12.50
2022-09-25T23:16:52.674Z,12.50
2022-09-25T23:19:21.933Z,12.50
2022-09-25T23:21:52.477Z,12.50
2022-09-25T23:24:23.467Z,12.50
2022-09-25T23:26:52.176Z,12.50
2022-09-25T23:29:22.857Z,12.40
2022-09-25T23:31:51.944Z,12.40
2022-09-25T23:34:20.767Z,12.40
2022-09-25T23:36:48.999Z,12.40
2022-09-25T23:39:20.872Z,12.40
2022-09-25T23:41:49.384Z,12.40
2022-09-25T23:44:17.556Z,12.40
2022-09-25T23:46:46.063Z,12.30
2022-09-25T23:49:14.872Z,12.30
2022-09-25T23:51:43.154Z,12.30
2022-09-25T23:54:12.119Z,12.30
2022-09-25T23:56:41.927Z,12.30
2022-09-25T23:59:13.050Z,12.30
